createdAt,value
2023-04-26T00:00:15.316Z,2.17
2023-04-26T00:00:46.648Z,2.25
2023-04-26T00:01:18.092Z,1.90
2023-04-26T00:01:49.455Z,2.20
2023-04-26T00:02:20.932Z,1.92
2023-04-26T00:02:52.464Z,2.30
2023-04-26T00:03:24.077Z,1.90
2023-04-26T00:03:55.728Z,1.65
2023-04-26T00:04:27.419Z,2.10
2023-04-26T00:04:59.186Z,2.15
2023-04-26T00:05:30.703Z,2.42
2023-04-26T00:06:02.052Z,2.67
2023-04-26T00:06:33.381Z,2.63
2023-04-26T00:07:04.835Z,1.63
2023-04-26T00:07:36.197Z,2.10
2023-04-26T00:08:07.545Z,1.90
2023-04-26T00:08:38.925Z,2.17
2023-04-26T00:09:10.280Z,2.88
2023-04-26T00:09:41.626Z,2.60
2023-04-26T00:10:12.976Z,2.28
2023-04-26T00:10:44.323Z,2.45
2023-04-26T00:11:15.656Z,3.13
2023-04-26T00:11:47.010Z,2.45
2023-04-26T00:12:18.731Z,2.50
2023-04-26T00:12:50.070Z,3.10
2023-04-26T00:13:21.396Z,3.53
2023-04-26T00:13:52.721Z,2.80
2023-04-26T00:14:24.188Z,2.78
2023-04-26T00:14:55.515Z,2.90
2023-04-26T00:15:26.897Z,3.50
2023-04-26T00:15:58.286Z,3.33
2023-04-26T00:16:29.829Z,3.92
2023-04-26T00:17:01.451Z,2.92
2023-04-26T00:17:32.930Z,4.20
2023-04-26T00:18:04.453Z,3.28
2023-04-26T00:18:35.856Z,3.08
2023-04-26T00:19:07.211Z,2.53
2023-04-26T00:19:38.581Z,2.65
2023-04-26T00:20:10.652Z,2.95
2023-04-26T00:20:42.003Z,2.53
2023-04-26T00:21:13.352Z,2.15
2023-04-26T00:21:44.678Z,2.75
2023-04-26T00:22:16.020Z,2.90
2023-04-26T00:22:47.345Z,1.70
2023-04-26T00:23:18.682Z,1.52
2023-04-26T00:23:50.032Z,1.58
2023-04-26T00:24:21.389Z,1.50
2023-04-26T00:24:52.773Z,1.45
2023-04-26T00:25:24.156Z,1.70
2023-04-26T00:25:56.794Z,1.55
2023-04-26T00:26:28.133Z,1.15
2023-04-26T00:26:59.483Z,1.60
2023-04-26T00:27:30.882Z,2.00
2023-04-26T00:28:02.430Z,1.77
2023-04-26T00:28:33.777Z,2.08
2023-04-26T00:29:05.120Z,1.40
2023-04-26T00:29:36.721Z,1.80
2023-04-26T00:30:08.380Z,2.08
2023-04-26T00:30:39.744Z,1.40
2023-04-26T00:31:17.173Z,1.52
2023-04-26T00:31:48.631Z,1.17
2023-04-26T00:32:20.159Z,1.27
2023-04-26T00:32:51.658Z,1.20
2023-04-26T00:33:26.268Z,1.63
2023-04-26T00:33:57.605Z,1.45
2023-04-26T00:34:35.763Z,1.10
2023-04-26T00:35:07.336Z,1.45
2023-04-26T00:35:38.700Z,1.25
2023-04-26T00:36:10.526Z,1.33
2023-04-26T00:36:41.873Z,2.42
2023-04-26T00:37:13.227Z,0.75
2023-04-26T00:37:44.745Z,1.08
2023-04-26T00:38:16.112Z,1.15
2023-04-26T00:38:47.614Z,0.90
2023-04-26T00:39:18.947Z,1.00
2023-04-26T00:39:50.325Z,1.00
2023-04-26T00:40:21.704Z,0.80
2023-04-26T00:40:53.054Z,1.35
2023-04-26T00:41:24.422Z,1.48
2023-04-26T00:41:55.940Z,1.17
2023-04-26T00:42:27.312Z,1.30
2023-04-26T00:42:58.927Z,1.38
2023-04-26T00:43:30.281Z,1.13
2023-04-26T00:44:01.750Z,1.50
2023-04-26T00:44:33.102Z,1.27
2023-04-26T00:45:04.733Z,1.27
2023-04-26T00:45:36.125Z,1.50
2023-04-26T00:46:10.338Z,1.58
2023-04-26T00:46:41.707Z,1.38
2023-04-26T00:47:13.508Z,1.52
2023-04-26T00:47:44.968Z,1.02
2023-04-26T00:48:16.377Z,1.33
2023-04-26T00:48:47.771Z,1.02
2023-04-26T00:49:20.690Z,1.30
2023-04-26T00:49:52.053Z,0.73
2023-04-26T00:50:23.475Z,2.00
2023-04-26T00:50:55.485Z,1.50
2023-04-26T00:51:26.816Z,1.48
2023-04-26T00:51:58.220Z,1.60
2023-04-26T00:52:30.538Z,1.35
2023-04-26T00:53:02.563Z,1.15
2023-04-26T00:53:34.066Z,1.30
2023-04-26T00:54:06.628Z,1.10
2023-04-26T00:54:38.315Z,1.50
2023-04-26T00:55:10.251Z,1.35
2023-04-26T00:55:42.046Z,2.05
2023-04-26T00:56:13.564Z,1.08
2023-04-26T00:56:44.961Z,1.30
2023-04-26T00:57:17.519Z,1.00
2023-04-26T00:57:48.901Z,1.48
2023-04-26T00:58:20.314Z,1.58
2023-04-26T00:58:52.141Z,1.30
2023-04-26T00:59:23.766Z,1.25
2023-04-26T00:59:55.107Z,1.40
2023-04-26T01:00:28.832Z,1.13
2023-04-26T01:01:00.262Z,1.75
2023-04-26T01:01:31.989Z,1.20
2023-04-26T01:02:04.008Z,1.40
2023-04-26T01:02:35.654Z,0.95
2023-04-26T01:03:07.274Z,1.08
2023-04-26T01:03:38.940Z,1.50
2023-04-26T01:04:13.802Z,1.02
2023-04-26T01:04:48.168Z,1.10
2023-04-26T01:05:19.536Z,1.23
2023-04-26T01:05:50.938Z,1.60
2023-04-26T01:06:22.623Z,1.20
2023-04-26T01:06:54.040Z,1.52
2023-04-26T01:07:25.400Z,1.33
2023-04-26T01:07:56.753Z,1.50
2023-04-26T01:08:28.137Z,1.40
2023-04-26T01:09:00.573Z,1.42
2023-04-26T01:09:32.378Z,1.30
2023-04-26T01:10:03.824Z,1.15
2023-04-26T01:10:35.656Z,1.23
2023-04-26T01:11:07.068Z,1.70
2023-04-26T01:11:38.423Z,1.42
2023-04-26T01:12:10.334Z,1.65
2023-04-26T01:12:41.695Z,0.95
2023-04-26T01:13:13.678Z,1.95
2023-04-26T01:13:46.335Z,0.90
2023-04-26T01:14:17.910Z,1.58
2023-04-26T01:14:49.450Z,1.10
2023-04-26T01:15:20.810Z,1.10
2023-04-26T01:15:52.209Z,1.27
2023-04-26T01:16:23.956Z,1.23
2023-04-26T01:16:56.617Z,1.35
2023-04-26T01:17:28.045Z,1.55
2023-04-26T01:17:59.765Z,1.38
2023-04-26T01:18:31.183Z,1.92
2023-04-26T01:19:09.003Z,1.88
2023-04-26T01:19:46.987Z,1.20
2023-04-26T01:20:18.304Z,1.77
2023-04-26T01:20:49.660Z,1.90
2023-04-26T01:21:21.404Z,1.55
2023-04-26T01:21:52.735Z,1.58
2023-04-26T01:22:24.053Z,0.90
2023-04-26T01:22:55.408Z,1.60
2023-04-26T01:23:26.925Z,1.20
2023-04-26T01:23:58.282Z,1.30
2023-04-26T01:24:29.785Z,1.30
2023-04-26T01:25:01.829Z,1.33
2023-04-26T01:25:33.182Z,1.45
2023-04-26T01:26:04.516Z,1.50
2023-04-26T01:26:35.893Z,1.30
2023-04-26T01:27:07.264Z,1.42
2023-04-26T01:27:38.864Z,1.23
2023-04-26T01:28:10.240Z,1.58
2023-04-26T01:28:41.570Z,1.23
2023-04-26T01:29:13.479Z,1.13
2023-04-26T01:29:44.984Z,1.45
2023-04-26T01:30:16.338Z,1.05
2023-04-26T01:30:47.734Z,1.67
2023-04-26T01:31:19.085Z,1.67
2023-04-26T01:31:50.432Z,1.10
2023-04-26T01:32:21.799Z,1.05
2023-04-26T01:32:53.242Z,1.20
2023-04-26T01:33:24.608Z,1.27
2023-04-26T01:33:55.955Z,2.17
2023-04-26T01:34:27.305Z,1.40
2023-04-26T01:34:59.848Z,1.10
2023-04-26T01:35:31.203Z,1.52
2023-04-26T01:36:02.543Z,1.13
2023-04-26T01:36:33.931Z,1.25
2023-04-26T01:37:05.306Z,1.17
2023-04-26T01:37:36.662Z,1.20
2023-04-26T01:38:08.032Z,1.05
2023-04-26T01:38:39.401Z,1.42
2023-04-26T01:39:10.716Z,1.25
2023-04-26T01:39:42.057Z,1.25
2023-04-26T01:40:13.590Z,1.10
2023-04-26T01:40:44.931Z,1.30
2023-04-26T01:41:16.290Z,2.15
2023-04-26T01:41:47.651Z,1.08
2023-04-26T01:42:18.975Z,1.60
2023-04-26T01:42:50.304Z,1.52
2023-04-26T01:43:21.653Z,1.10
2023-04-26T01:43:53.134Z,1.08
2023-04-26T01:44:24.487Z,1.60
2023-04-26T01:44:55.832Z,1.33
2023-04-26T01:45:27.173Z,1.67
2023-04-26T01:45:58.578Z,1.30
2023-04-26T01:46:30.038Z,1.23
2023-04-26T01:47:01.469Z,1.25
2023-04-26T01:47:32.816Z,0.90
2023-04-26T01:48:04.307Z,0.98
2023-04-26T01:48:35.675Z,1.33
2023-04-26T01:49:07.103Z,1.65
2023-04-26T01:49:38.457Z,1.30
2023-04-26T01:50:10.010Z,1.30
2023-04-26T01:50:41.347Z,1.48
2023-04-26T01:51:12.835Z,1.60
2023-04-26T01:51:44.162Z,1.85
2023-04-26T01:52:15.505Z,1.95
2023-04-26T01:52:46.851Z,1.60
2023-04-26T01:53:18.178Z,2.08
2023-04-26T01:53:49.530Z,2.50
2023-04-26T01:54:20.874Z,2.87
2023-04-26T01:54:52.281Z,2.03
2023-04-26T01:55:23.653Z,2.10
2023-04-26T01:55:54.988Z,2.10
2023-04-26T01:56:26.318Z,2.00
2023-04-26T01:56:57.656Z,1.92
2023-04-26T01:57:28.982Z,1.85
2023-04-26T01:58:00.352Z,2.57
2023-04-26T01:58:31.875Z,2.40
2023-04-26T01:59:03.233Z,2.55
2023-04-26T01:59:34.631Z,2.20
2023-04-26T02:00:06.376Z,1.92
2023-04-26T02:00:37.714Z,2.00
2023-04-26T02:01:09.402Z,2.00
2023-04-26T02:01:44.045Z,2.33
2023-04-26T02:02:17.028Z,2.65
2023-04-26T02:02:48.447Z,3.30
2023-04-26T02:03:19.930Z,4.05
2023-04-26T02:03:51.934Z,5.38
2023-04-26T02:04:23.281Z,3.40
2023-04-26T02:04:54.787Z,4.05
2023-04-26T02:05:26.216Z,5.43
2023-04-26T02:05:57.689Z,4.97
2023-04-26T02:06:29.025Z,4.15
2023-04-26T02:07:00.346Z,4.07
2023-04-26T02:07:31.691Z,4.38
2023-04-26T02:08:03.045Z,5.55
2023-04-26T02:08:34.564Z,7.68
2023-04-26T02:09:05.913Z,5.70
2023-04-26T02:09:37.281Z,5.72
2023-04-26T02:10:08.933Z,5.70
2023-04-26T02:10:40.287Z,6.00
2023-04-26T02:11:11.659Z,6.60
2023-04-26T02:11:42.999Z,6.55
2023-04-26T02:12:14.350Z,6.15
2023-04-26T02:12:45.658Z,5.80
2023-04-26T02:13:17.003Z,5.22
2023-04-26T02:13:48.651Z,5.88
2023-04-26T02:14:19.985Z,6.72
2023-04-26T02:14:51.316Z,5.90
2023-04-26T02:15:22.676Z,6.00
2023-04-26T02:15:54.057Z,5.28
2023-04-26T02:16:25.512Z,5.63
2023-04-26T02:16:57.039Z,4.97
2023-04-26T02:17:28.421Z,4.80
2023-04-26T02:17:59.837Z,3.78
2023-04-26T02:18:31.211Z,4.47
2023-04-26T02:19:02.573Z,4.82
2023-04-26T02:19:33.912Z,4.28
2023-04-26T02:20:05.454Z,4.45
2023-04-26T02:20:36.766Z,4.50
2023-04-26T02:21:08.590Z,4.75
2023-04-26T02:21:56.811Z,5.13
2023-04-26T02:22:28.164Z,4.47
2023-04-26T02:22:59.516Z,4.97
2023-04-26T02:23:30.851Z,5.50
2023-04-26T02:24:02.214Z,4.68
2023-04-26T02:24:33.726Z,5.05
2023-04-26T02:25:05.333Z,4.70
2023-04-26T02:25:36.724Z,4.18
2023-04-26T02:26:08.053Z,4.57
2023-04-26T02:26:39.415Z,4.47
2023-04-26T02:27:10.772Z,4.82
2023-04-26T02:27:42.115Z,4.50
2023-04-26T02:28:13.602Z,4.33
2023-04-26T02:28:44.949Z,5.03
2023-04-26T02:29:16.295Z,3.70
2023-04-26T02:29:47.641Z,4.30
2023-04-26T02:30:19.044Z,3.85
2023-04-26T02:30:50.353Z,3.88
2023-04-26T02:31:23.095Z,4.15
2023-04-26T02:31:54.710Z,3.95
2023-04-26T02:32:26.090Z,4.50
2023-04-26T02:32:57.763Z,5.03
2023-04-26T02:33:29.190Z,5.18
2023-04-26T02:34:00.552Z,6.28
2023-04-26T02:34:31.922Z,5.35
2023-04-26T02:35:03.353Z,5.15
2023-04-26T02:35:35.190Z,5.32
2023-04-26T02:36:06.717Z,4.63
2023-04-26T02:36:38.046Z,4.85
2023-04-26T02:37:09.420Z,5.13
2023-04-26T02:37:40.773Z,4.82
2023-04-26T02:38:12.104Z,4.03
2023-04-26T02:38:43.455Z,3.78
2023-04-26T02:39:14.932Z,4.93
2023-04-26T02:39:49.380Z,3.85
2023-04-26T02:40:21.135Z,4.05
2023-04-26T02:41:02.099Z,4.43
2023-04-26T02:41:33.471Z,4.07
2023-04-26T02:42:08.357Z,3.88
2023-04-26T02:42:39.699Z,4.55
2023-04-26T02:43:11.284Z,3.80
2023-04-26T02:43:42.638Z,4.25
2023-04-26T02:44:13.988Z,5.25
2023-04-26T02:44:45.346Z,4.70
2023-04-26T02:45:16.720Z,5.38
2023-04-26T02:45:48.072Z,5.07
2023-04-26T02:46:19.420Z,5.05
2023-04-26T02:46:50.826Z,4.93
2023-04-26T02:47:22.211Z,4.20
2023-04-26T02:47:53.606Z,4.85
2023-04-26T02:48:25.027Z,5.55
2023-04-26T02:48:56.358Z,5.40
2023-04-26T02:49:27.736Z,5.28
2023-04-26T02:49:59.103Z,5.10
2023-04-26T02:50:30.454Z,5.07
2023-04-26T02:51:01.789Z,5.15
2023-04-26T02:51:33.158Z,5.43
2023-04-26T02:52:04.525Z,5.05
2023-04-26T02:52:36.450Z,5.35
2023-04-26T02:53:07.785Z,4.95
2023-04-26T02:53:39.095Z,5.25
2023-04-26T02:54:10.436Z,5.15
2023-04-26T02:54:41.759Z,4.45
2023-04-26T02:55:13.220Z,4.95
2023-04-26T02:55:44.572Z,4.40
2023-04-26T02:56:15.923Z,4.88
2023-04-26T02:56:47.275Z,5.65
2023-04-26T02:57:18.602Z,5.38
2023-04-26T02:57:49.955Z,5.32
2023-04-26T02:58:21.301Z,5.95
2023-04-26T02:58:52.931Z,4.80
2023-04-26T02:59:24.473Z,4.95
2023-04-26T02:59:55.856Z,5.30
2023-04-26T03:00:27.181Z,5.10
2023-04-26T03:01:01.098Z,6.30
2023-04-26T03:01:33.221Z,5.63
2023-04-26T03:02:04.685Z,5.55
2023-04-26T03:02:36.213Z,5.80
2023-04-26T03:03:08.091Z,5.68
2023-04-26T03:03:39.566Z,5.18
2023-04-26T03:04:11.067Z,6.57
2023-04-26T03:04:42.576Z,6.10
2023-04-26T03:05:13.926Z,6.00
2023-04-26T03:05:45.280Z,5.68
2023-04-26T03:06:16.682Z,5.40
2023-04-26T03:06:48.092Z,4.30
2023-04-26T03:07:19.487Z,5.20
2023-04-26T03:07:50.887Z,5.32
2023-04-26T03:08:22.230Z,4.38
2023-04-26T03:08:53.743Z,4.85
2023-04-26T03:09:25.301Z,5.57
2023-04-26T03:09:56.680Z,4.38
2023-04-26T03:10:28.035Z,4.20
2023-04-26T03:10:59.378Z,4.10
2023-04-26T03:11:30.844Z,4.63
2023-04-26T03:12:02.184Z,3.92
2023-04-26T03:12:33.582Z,4.38
2023-04-26T03:13:05.157Z,3.58
2023-04-26T03:13:36.524Z,4.15
2023-04-26T03:14:07.834Z,3.53
2023-04-26T03:14:39.306Z,4.10
2023-04-26T03:15:10.676Z,4.30
2023-04-26T03:15:45.612Z,5.00
2023-04-26T03:16:19.001Z,4.50
2023-04-26T03:16:50.447Z,4.75
2023-04-26T03:17:21.936Z,5.07
2023-04-26T03:17:53.375Z,4.35
2023-04-26T03:18:24.852Z,4.53
2023-04-26T03:18:56.206Z,4.32
2023-04-26T03:19:27.664Z,4.47
2023-04-26T03:20:00.570Z,5.07
2023-04-26T03:20:33.222Z,4.78
2023-04-26T03:21:04.568Z,5.03
2023-04-26T03:21:36.158Z,5.20
2023-04-26T03:22:07.533Z,5.78
2023-04-26T03:22:38.908Z,5.13
2023-04-26T03:23:10.272Z,5.20
2023-04-26T03:23:41.613Z,5.00
2023-04-26T03:24:12.962Z,5.68
2023-04-26T03:24:44.344Z,5.32
2023-04-26T03:25:15.860Z,5.03
2023-04-26T03:25:47.215Z,4.70
2023-04-26T03:26:18.548Z,4.30
2023-04-26T03:26:49.875Z,3.35
2023-04-26T03:27:21.204Z,3.72
2023-04-26T03:27:52.546Z,3.60
2023-04-26T03:28:23.977Z,2.97
2023-04-26T03:28:55.354Z,3.10
2023-04-26T03:29:26.715Z,3.15
2023-04-26T03:29:58.101Z,2.80
2023-04-26T03:30:29.708Z,2.97
2023-04-26T03:31:01.051Z,2.90
2023-04-26T03:31:32.479Z,2.50
2023-04-26T03:32:03.935Z,2.50
2023-04-26T03:32:35.319Z,2.53
2023-04-26T03:33:06.692Z,2.13
2023-04-26T03:33:38.091Z,1.83
2023-04-26T03:34:09.529Z,2.03
2023-04-26T03:34:40.916Z,2.10
2023-04-26T03:35:12.265Z,1.75
2023-04-26T03:35:43.699Z,1.40
2023-04-26T03:36:15.306Z,2.25
2023-04-26T03:36:46.632Z,2.25
2023-04-26T03:37:17.959Z,1.77
2023-04-26T03:37:49.963Z,1.73
2023-04-26T03:38:22.541Z,2.22
2023-04-26T03:38:54.515Z,1.95
2023-04-26T03:39:25.873Z,1.80
2023-04-26T03:39:57.207Z,1.90
2023-04-26T03:40:28.583Z,1.92
2023-04-26T03:40:59.922Z,1.85
2023-04-26T03:41:31.500Z,1.83
2023-04-26T03:42:02.880Z,1.67
2023-04-26T03:42:34.221Z,1.85
2023-04-26T03:43:05.568Z,2.13
2023-04-26T03:43:36.943Z,1.70
2023-04-26T03:44:08.300Z,2.03
2023-04-26T03:44:39.683Z,1.50
2023-04-26T03:45:11.123Z,1.98
2023-04-26T03:45:42.456Z,1.83
2023-04-26T03:46:13.888Z,2.03
2023-04-26T03:46:45.278Z,2.20
2023-04-26T03:47:16.612Z,2.80
2023-04-26T03:47:47.946Z,2.08
2023-04-26T03:48:19.362Z,2.95
2023-04-26T03:48:50.929Z,2.90
2023-04-26T03:49:22.381Z,3.03
2023-04-26T03:49:53.714Z,3.40
2023-04-26T03:50:25.040Z,3.17
2023-04-26T03:50:56.395Z,3.75
2023-04-26T03:51:27.753Z,3.60
2023-04-26T03:51:59.089Z,4.15
2023-04-26T03:52:30.428Z,4.93
2023-04-26T03:53:01.777Z,5.72
2023-04-26T03:53:33.124Z,4.78
2023-04-26T03:54:04.523Z,5.53
2023-04-26T03:54:35.867Z,4.55
2023-04-26T03:55:07.449Z,5.35
2023-04-26T03:55:38.818Z,5.63
2023-04-26T03:56:10.138Z,5.30
2023-04-26T03:56:41.505Z,5.63
2023-04-26T03:57:12.871Z,5.18
2023-04-26T03:57:44.234Z,5.22
2023-04-26T03:58:15.575Z,5.63
2023-04-26T03:58:46.903Z,5.70
2023-04-26T03:59:18.257Z,6.32
2023-04-26T03:59:49.608Z,7.18
2023-04-26T04:00:20.954Z,5.05
2023-04-26T04:00:52.418Z,5.80
2023-04-26T04:01:23.779Z,6.32
2023-04-26T04:01:55.110Z,5.70
2023-04-26T04:02:26.608Z,3.88
2023-04-26T04:02:58.170Z,3.85
2023-04-26T04:03:29.773Z,4.18
2023-04-26T04:04:01.553Z,5.05
2023-04-26T04:04:33.373Z,3.95
2023-04-26T04:05:05.079Z,3.63
2023-04-26T04:05:36.670Z,3.70
2023-04-26T04:06:08.129Z,2.28
2023-04-26T04:06:39.469Z,2.58
2023-04-26T04:07:10.806Z,2.72
2023-04-26T04:07:42.154Z,2.83
2023-04-26T04:08:13.420Z,2.95
2023-04-26T04:08:44.762Z,4.43
2023-04-26T04:09:16.102Z,2.90
2023-04-26T04:09:47.432Z,2.30
2023-04-26T04:10:18.989Z,3.03
2023-04-26T04:10:50.465Z,2.90
2023-04-26T04:11:21.978Z,2.60
2023-04-26T04:11:53.356Z,2.63
2023-04-26T04:12:24.714Z,3.92
2023-04-26T04:12:56.169Z,2.45
2023-04-26T04:13:27.500Z,2.03
2023-04-26T04:13:58.866Z,1.77
2023-04-26T04:14:30.374Z,2.47
2023-04-26T04:15:01.934Z,2.00
2023-04-26T04:15:33.340Z,2.07
2023-04-26T04:16:04.875Z,3.33
2023-04-26T04:16:36.282Z,3.28
2023-04-26T04:17:07.627Z,4.00
2023-04-26T04:17:39.092Z,3.17
2023-04-26T04:18:10.615Z,3.55
2023-04-26T04:18:42.071Z,3.38
2023-04-26T04:19:13.421Z,3.50
2023-04-26T04:19:44.909Z,3.22
2023-04-26T04:20:16.260Z,3.63
2023-04-26T04:20:47.947Z,3.30
2023-04-26T04:21:19.318Z,3.50
2023-04-26T04:21:50.720Z,4.10
2023-04-26T04:22:22.075Z,2.85
2023-04-26T04:22:53.411Z,2.95
2023-04-26T04:23:24.744Z,3.33
2023-04-26T04:23:56.115Z,2.78
2023-04-26T04:24:27.465Z,3.33
2023-04-26T04:24:58.816Z,3.40
2023-04-26T04:25:30.174Z,2.80
2023-04-26T04:26:01.552Z,2.70
2023-04-26T04:26:33.083Z,2.05
2023-04-26T04:27:04.509Z,2.63
2023-04-26T04:27:36.359Z,2.13
2023-04-26T04:28:07.727Z,2.30
2023-04-26T04:28:39.709Z,2.72
2023-04-26T04:29:11.046Z,2.40
2023-04-26T04:29:42.381Z,2.85
2023-04-26T04:30:13.799Z,2.17
2023-04-26T04:30:45.160Z,3.13
2023-04-26T04:31:16.576Z,2.70
2023-04-26T04:31:47.984Z,2.30
2023-04-26T04:32:19.694Z,2.33
2023-04-26T04:32:51.049Z,2.30
2023-04-26T04:33:22.449Z,2.33
2023-04-26T04:33:53.788Z,3.08
2023-04-26T04:34:25.129Z,1.92
2023-04-26T04:34:56.558Z,1.92
2023-04-26T04:35:29.477Z,3.20
2023-04-26T04:36:00.847Z,1.88
2023-04-26T04:36:32.227Z,2.35
2023-04-26T04:37:03.613Z,2.45
2023-04-26T04:37:35.084Z,2.40
2023-04-26T04:38:06.464Z,2.45
2023-04-26T04:38:37.801Z,3.00
2023-04-26T04:39:09.200Z,1.90
2023-04-26T04:39:40.536Z,2.53
2023-04-26T04:40:12.146Z,1.98
2023-04-26T04:40:43.639Z,1.83
2023-04-26T04:41:14.988Z,2.70
2023-04-26T04:41:46.334Z,2.70
2023-04-26T04:42:17.682Z,2.08
2023-04-26T04:42:49.085Z,2.17
2023-04-26T04:43:20.479Z,2.47
2023-04-26T04:43:51.822Z,2.40
2023-04-26T04:44:23.170Z,2.53
2023-04-26T04:44:54.664Z,2.58
2023-04-26T04:45:25.984Z,2.17
2023-04-26T04:45:57.333Z,3.03
2023-04-26T04:46:28.710Z,2.40
2023-04-26T04:47:00.210Z,2.25
2023-04-26T04:47:31.684Z,2.47
2023-04-26T04:48:03.089Z,2.28
2023-04-26T04:48:34.470Z,2.00
2023-04-26T04:49:05.824Z,2.22
2023-04-26T04:49:37.381Z,2.40
2023-04-26T04:50:08.990Z,2.33
2023-04-26T04:50:40.406Z,2.28
2023-04-26T04:51:11.754Z,2.85
2023-04-26T04:51:43.079Z,3.30
2023-04-26T04:52:15.342Z,3.17
2023-04-26T04:52:47.627Z,2.55
2023-04-26T04:53:18.952Z,2.40
2023-04-26T04:53:50.284Z,2.17
2023-04-26T04:54:21.608Z,2.50
2023-04-26T04:54:52.979Z,2.50
2023-04-26T04:55:24.359Z,2.00
2023-04-26T04:55:55.735Z,2.60
2023-04-26T04:56:27.045Z,2.40
2023-04-26T04:56:58.385Z,1.67
2023-04-26T04:57:29.915Z,2.35
2023-04-26T04:58:01.257Z,2.10
2023-04-26T04:58:32.575Z,2.45
2023-04-26T04:59:03.996Z,2.30
2023-04-26T04:59:35.349Z,1.90
2023-04-26T05:00:07.043Z,2.03
2023-04-26T05:00:38.374Z,2.63
2023-04-26T05:01:09.704Z,2.80
2023-04-26T05:01:41.087Z,2.85
2023-04-26T05:02:12.590Z,3.00
2023-04-26T05:02:44.164Z,2.65
2023-04-26T05:03:15.730Z,2.47
2023-04-26T05:03:47.301Z,2.60
2023-04-26T05:04:18.818Z,3.08
2023-04-26T05:04:50.464Z,4.95
2023-04-26T05:05:22.230Z,3.47
2023-04-26T05:05:53.630Z,4.28
2023-04-26T05:06:24.995Z,2.88
2023-04-26T05:06:56.352Z,3.13
2023-04-26T05:07:29.010Z,2.90
2023-04-26T05:08:00.574Z,3.08
2023-04-26T05:08:31.928Z,2.72
2023-04-26T05:09:03.365Z,2.20
2023-04-26T05:09:34.950Z,2.42
2023-04-26T05:10:06.586Z,2.35
2023-04-26T05:10:37.950Z,2.80
2023-04-26T05:11:09.320Z,2.95
2023-04-26T05:11:40.713Z,2.58
2023-04-26T05:12:12.075Z,2.65
2023-04-26T05:12:43.462Z,2.05
2023-04-26T05:13:14.805Z,2.25
2023-04-26T05:13:46.356Z,2.37
2023-04-26T05:14:17.705Z,2.58
2023-04-26T05:14:49.156Z,2.80
2023-04-26T05:15:20.483Z,3.20
2023-04-26T05:15:51.851Z,2.60
2023-04-26T05:16:23.280Z,3.20
2023-04-26T05:16:54.737Z,2.72
2023-04-26T05:17:26.308Z,3.40
2023-04-26T05:17:57.730Z,2.58
2023-04-26T05:18:29.158Z,2.40
2023-04-26T05:19:00.501Z,2.67
2023-04-26T05:19:31.856Z,2.40
2023-04-26T05:20:03.238Z,2.70
2023-04-26T05:20:34.636Z,3.00
2023-04-26T05:21:06.057Z,2.38
2023-04-26T05:21:37.388Z,2.60
2023-04-26T05:22:08.733Z,2.80
2023-04-26T05:22:40.126Z,3.00
2023-04-26T05:23:11.477Z,2.65
2023-04-26T05:23:42.906Z,2.70
2023-04-26T05:24:14.253Z,2.47
2023-04-26T05:24:46.402Z,2.10
2023-04-26T05:25:18.262Z,2.37
2023-04-26T05:25:50.574Z,2.83
2023-04-26T05:26:21.922Z,2.42
2023-04-26T05:26:53.267Z,2.65
2023-04-26T05:27:24.624Z,2.33
2023-04-26T05:27:55.971Z,3.17
2023-04-26T05:28:27.362Z,2.30
2023-04-26T05:28:58.729Z,2.50
2023-04-26T05:29:30.338Z,2.72
2023-04-26T05:30:01.689Z,2.95
2023-04-26T05:30:33.069Z,2.50
2023-04-26T05:31:04.411Z,2.17
2023-04-26T05:31:35.746Z,2.47
2023-04-26T05:32:07.537Z,2.65
2023-04-26T05:32:38.960Z,3.10
2023-04-26T05:33:10.425Z,3.15
2023-04-26T05:33:41.774Z,2.17
2023-04-26T05:34:13.127Z,2.30
2023-04-26T05:34:44.469Z,2.90
2023-04-26T05:35:15.876Z,3.03
2023-04-26T05:35:47.244Z,2.63
2023-04-26T05:36:18.732Z,2.90
2023-04-26T05:36:50.089Z,2.75
2023-04-26T05:37:21.408Z,2.42
2023-04-26T05:37:52.759Z,3.00
2023-04-26T05:38:24.248Z,2.78
2023-04-26T05:38:55.613Z,2.28
2023-04-26T05:39:26.962Z,2.20
2023-04-26T05:39:58.371Z,3.33
2023-04-26T05:40:29.718Z,2.78
2023-04-26T05:41:01.070Z,2.53
2023-04-26T05:41:32.450Z,2.53
2023-04-26T05:42:03.858Z,2.50
2023-04-26T05:42:35.179Z,2.55
2023-04-26T05:43:06.536Z,2.63
2023-04-26T05:43:37.962Z,2.33
2023-04-26T05:44:09.349Z,3.47
2023-04-26T05:44:40.933Z,3.20
2023-04-26T05:45:12.417Z,2.70
2023-04-26T05:45:50.437Z,2.63
2023-04-26T05:46:22.149Z,2.53
2023-04-26T05:46:53.637Z,2.88
2023-04-26T05:47:25.090Z,3.40
2023-04-26T05:47:56.442Z,2.70
2023-04-26T05:48:27.793Z,2.67
2023-04-26T05:48:59.204Z,2.67
2023-04-26T05:49:30.593Z,2.40
2023-04-26T05:50:02.025Z,2.50
2023-04-26T05:50:33.369Z,2.58
2023-04-26T05:51:04.881Z,2.70
2023-04-26T05:51:36.215Z,2.50
2023-04-26T05:52:07.532Z,2.45
2023-04-26T05:52:38.882Z,2.40
2023-04-26T05:53:10.246Z,3.33
2023-04-26T05:53:41.657Z,2.28
2023-04-26T05:54:13.009Z,3.13
2023-04-26T05:54:44.448Z,2.40
2023-04-26T05:55:15.840Z,2.80
2023-04-26T05:55:47.494Z,2.42
2023-04-26T05:56:18.983Z,2.72
2023-04-26T05:56:50.352Z,2.80
2023-04-26T05:57:21.785Z,3.30
2023-04-26T05:57:53.223Z,3.05
2023-04-26T05:58:24.639Z,3.17
2023-04-26T05:58:56.041Z,3.10
2023-04-26T05:59:28.297Z,4.28
2023-04-26T05:59:59.668Z,2.60
2023-04-26T06:00:31.046Z,2.22
2023-04-26T06:01:02.370Z,3.65
2023-04-26T06:01:33.725Z,3.17
2023-04-26T06:02:05.069Z,3.28
2023-04-26T06:02:36.563Z,2.92
2023-04-26T06:03:08.572Z,2.70
2023-04-26T06:03:40.241Z,2.75
2023-04-26T06:04:12.033Z,2.75
2023-04-26T06:04:43.707Z,3.10
2023-04-26T06:05:15.366Z,2.65
2023-04-26T06:05:46.890Z,2.58
2023-04-26T06:06:18.286Z,2.70
2023-04-26T06:06:49.647Z,3.10
2023-04-26T06:07:20.994Z,2.72
2023-04-26T06:07:52.804Z,3.08
2023-04-26T06:08:24.121Z,2.55
2023-04-26T06:08:55.712Z,2.70
2023-04-26T06:09:27.096Z,2.83
2023-04-26T06:10:00.537Z,2.75
2023-04-26T06:10:31.960Z,3.30
2023-04-26T06:11:03.359Z,3.03
2023-04-26T06:11:34.698Z,2.88
2023-04-26T06:12:06.074Z,3.03
2023-04-26T06:12:38.476Z,2.60
2023-04-26T06:13:10.010Z,3.40
2023-04-26T06:13:41.354Z,2.75
2023-04-26T06:14:20.025Z,2.83
2023-04-26T06:15:01.110Z,2.88
2023-04-26T06:15:32.455Z,3.00
2023-04-26T06:16:04.020Z,2.72
2023-04-26T06:16:35.395Z,3.50
2023-04-26T06:17:06.774Z,2.28
2023-04-26T06:17:38.211Z,4.05
2023-04-26T06:18:09.595Z,3.15
2023-04-26T06:18:40.950Z,2.25
2023-04-26T06:19:12.288Z,2.95
2023-04-26T06:19:43.620Z,2.67
2023-04-26T06:20:14.974Z,3.10
2023-04-26T06:20:46.518Z,2.80
2023-04-26T06:21:17.892Z,2.65
2023-04-26T06:21:49.244Z,2.63
2023-04-26T06:22:20.630Z,2.63
2023-04-26T06:22:51.976Z,2.60
2023-04-26T06:23:23.319Z,3.00
2023-04-26T06:23:54.809Z,3.03
2023-04-26T06:24:26.338Z,2.35
2023-04-26T06:24:57.754Z,2.40
2023-04-26T06:25:29.103Z,2.38
2023-04-26T06:26:00.466Z,2.28
2023-04-26T06:26:31.853Z,2.28
2023-04-26T06:27:03.217Z,2.70
2023-04-26T06:27:34.570Z,3.28
2023-04-26T06:28:05.906Z,2.40
2023-04-26T06:28:37.260Z,2.33
2023-04-26T06:29:08.603Z,2.22
2023-04-26T06:29:39.922Z,3.50
2023-04-26T06:30:11.384Z,4.65
2023-04-26T06:30:42.810Z,2.78
2023-04-26T06:31:14.211Z,2.83
2023-04-26T06:31:45.628Z,2.97
2023-04-26T06:32:16.990Z,2.90
2023-04-26T06:32:48.439Z,2.67
2023-04-26T06:33:19.883Z,2.38
2023-04-26T06:33:51.515Z,2.40
2023-04-26T06:34:23.018Z,2.42
2023-04-26T06:34:54.380Z,2.65
2023-04-26T06:35:25.697Z,2.85
2023-04-26T06:35:57.037Z,2.77
2023-04-26T06:36:28.409Z,3.53
2023-04-26T06:36:59.774Z,3.28
2023-04-26T06:37:31.099Z,2.15
2023-04-26T06:38:02.440Z,2.70
2023-04-26T06:38:33.783Z,2.38
2023-04-26T06:39:05.117Z,2.22
2023-04-26T06:39:36.471Z,2.35
2023-04-26T06:40:08.167Z,2.22
2023-04-26T06:40:39.647Z,2.53
2023-04-26T06:41:11.149Z,3.20
2023-04-26T06:41:42.606Z,2.65
2023-04-26T06:42:13.967Z,2.53
2023-04-26T06:42:47.131Z,2.88
2023-04-26T06:43:18.482Z,3.13
2023-04-26T06:43:51.361Z,2.42
2023-04-26T06:44:22.825Z,2.85
2023-04-26T06:44:54.292Z,2.55
2023-04-26T06:45:25.731Z,2.67
2023-04-26T06:45:57.129Z,2.67
2023-04-26T06:46:28.650Z,2.65
2023-04-26T06:47:00.004Z,2.53
2023-04-26T06:47:31.459Z,2.90
2023-04-26T06:48:03.142Z,2.80
2023-04-26T06:48:34.503Z,2.92
2023-04-26T06:49:05.870Z,2.50
2023-04-26T06:49:37.234Z,2.80
2023-04-26T06:50:08.999Z,2.33
2023-04-26T06:50:40.451Z,2.15
2023-04-26T06:51:11.832Z,3.20
2023-04-26T06:51:43.174Z,2.92
2023-04-26T06:52:14.568Z,3.10
2023-04-26T06:52:45.958Z,2.80
2023-04-26T06:53:17.322Z,3.53
2023-04-26T06:53:48.857Z,2.53
2023-04-26T06:54:20.198Z,2.80
2023-04-26T06:54:57.160Z,1.90
2023-04-26T06:55:29.018Z,2.63
2023-04-26T06:56:00.373Z,2.92
2023-04-26T06:56:31.693Z,2.22
2023-04-26T06:57:03.052Z,2.38
2023-04-26T06:57:34.396Z,2.80
2023-04-26T06:58:05.769Z,3.03
2023-04-26T06:58:37.106Z,2.40
2023-04-26T06:59:08.447Z,2.25
2023-04-26T06:59:39.857Z,2.90
2023-04-26T07:00:11.465Z,2.78
2023-04-26T07:00:42.830Z,2.80